Aviation Digital Data Service (ADDS)

Output produced by METARs form (1213 UTC 19 December 2014)
found at http://aviationweather.gov/adds/metars/
 
KBHB 191130Z 1912/2012 31008KT P6SM VCSH BKN030 
     FM191400 32009G17KT P6SM SCT035 
     FM192200 31006KT P6SM FEW045 BKN250 AMD LTD TO CLD VIS AND WIND